createdAt,value
2023-02-19T00:01:35.675Z,8.76
2023-02-19T00:04:05.701Z,8.88
2023-02-19T00:06:34.095Z,8.87
2023-02-19T00:09:00.868Z,8.71
2023-02-19T00:32:56.325Z,8.77
2023-02-19T00:35:23.022Z,8.79
2023-02-19T00:37:49.435Z,8.86
2023-02-19T00:40:15.909Z,8.82
2023-02-19T00:42:42.370Z,8.78
2023-02-19T00:45:08.948Z,8.68
2023-02-19T00:47:35.342Z,8.92
2023-02-19T00:50:01.774Z,8.85
2023-02-19T01:32:51.301Z,8.43
2023-02-19T01:35:17.924Z,8.64
2023-02-19T01:37:44.353Z,8.71
2023-02-19T01:40:10.875Z,8.79
2023-02-19T01:42:37.284Z,8.66
2023-02-19T01:45:22.990Z,8.98
2023-02-19T01:48:30.362Z,8.99
2023-02-19T01:51:04.279Z,8.86
2023-02-19T01:53:34.446Z,8.78
2023-02-19T01:56:02.012Z,8.88
2023-02-19T01:58:33.380Z,8.88
2023-02-19T02:01:02.743Z,8.88
2023-02-19T02:03:29.906Z,8.75
2023-02-19T02:06:02.117Z,8.97
2023-02-19T02:08:48.849Z,9.04
2023-02-19T02:11:15.474Z,8.92
2023-02-19T02:13:42.559Z,8.97
2023-02-19T02:16:15.257Z,8.98
2023-02-19T02:19:14.335Z,8.97
2023-02-19T02:21:52.770Z,8.78
2023-02-19T02:24:34.266Z,8.94
2023-02-19T02:27:28.474Z,8.91
2023-02-19T02:30:10.486Z,8.93
2023-02-19T02:54:31.258Z,8.84
2023-02-19T02:56:59.244Z,8.73
2023-02-19T02:59:30.286Z,8.59
2023-02-19T03:02:10.865Z,8.62
2023-02-19T03:05:01.436Z,8.80
2023-02-19T03:07:33.948Z,8.62
2023-02-19T03:10:05.394Z,8.71
2023-02-19T03:12:53.375Z,8.70
2023-02-19T03:15:38.729Z,8.60
2023-02-19T03:18:28.421Z,8.60
2023-02-19T03:20:57.750Z,8.63
2023-02-19T03:23:48.158Z,8.62
2023-02-19T03:26:17.427Z,8.66
2023-02-19T03:29:04.814Z,8.70
2023-02-19T03:31:33.094Z,8.62
2023-02-19T03:34:03.268Z,8.55
2023-02-19T03:36:35.679Z,8.69
2023-02-19T03:39:06.343Z,8.66
2023-02-19T03:41:47.185Z,8.61
2023-02-19T03:44:54.987Z,8.62
2023-02-19T03:47:29.323Z,8.48
2023-02-19T03:50:06.649Z,8.35
2023-02-19T04:14:30.706Z,8.04
2023-02-19T04:17:08.880Z,7.72
2023-02-19T04:19:41.206Z,8.19
2023-02-19T04:22:20.873Z,8.00
2023-02-19T04:24:50.162Z,8.16
2023-02-19T04:27:18.498Z,8.34
2023-02-19T04:29:45.151Z,8.15
2023-02-19T04:32:13.964Z,8.56
2023-02-19T04:34:40.811Z,8.56
2023-02-19T04:37:07.595Z,8.48
2023-02-19T04:39:34.100Z,8.53
2023-02-19T04:42:00.556Z,8.42
2023-02-19T04:44:27.110Z,8.42
2023-02-19T04:46:53.538Z,8.34
2023-02-19T04:49:19.980Z,8.47
2023-02-19T04:51:49.337Z,8.43
2023-02-19T06:03:29.554Z,8.07
2023-02-19T06:05:57.449Z,8.22
2023-02-19T06:08:23.980Z,7.65
2023-02-19T06:10:52.120Z,7.91
2023-02-19T06:13:18.733Z,7.74
2023-02-19T06:15:58.487Z,8.15
2023-02-19T06:18:24.881Z,8.12
2023-02-19T06:20:51.293Z,8.10
2023-02-19T06:23:17.739Z,8.06
2023-02-19T06:25:44.212Z,7.90
2023-02-19T06:28:24.849Z,8.23
2023-02-19T06:30:51.623Z,7.76
2023-02-19T06:33:18.133Z,8.08
2023-02-19T06:35:44.589Z,8.15
2023-02-19T06:38:10.988Z,8.20
2023-02-19T06:40:37.487Z,8.13
2023-02-19T06:43:03.974Z,8.11
2023-02-19T06:45:30.367Z,8.07
2023-02-19T06:47:56.848Z,7.95
2023-02-19T06:50:23.306Z,8.04
2023-02-19T07:14:18.603Z,7.21
2023-02-19T07:16:47.228Z,7.07
2023-02-19T07:19:15.334Z,6.88
2023-02-19T07:21:42.367Z,6.82
2023-02-19T07:24:09.860Z,6.72
2023-02-19T07:26:39.262Z,6.54
2023-02-19T07:29:06.641Z,6.51
2023-02-19T07:31:33.351Z,6.34
2023-02-19T07:33:59.910Z,6.34
2023-02-19T07:36:26.358Z,6.26
2023-02-19T07:38:57.782Z,6.29
2023-02-19T07:41:25.490Z,6.37
2023-02-19T07:43:52.179Z,6.27
2023-02-19T07:51:43.878Z,6.25
2023-02-19T07:54:11.525Z,6.28
2023-02-19T07:56:37.959Z,6.17
2023-02-19T07:59:05.259Z,6.18
2023-02-19T08:01:50.244Z,6.19
2023-02-19T08:04:16.747Z,6.20
2023-02-19T08:06:43.720Z,6.26
2023-02-19T08:09:13.244Z,6.25
2023-02-19T08:12:05.593Z,6.17
2023-02-19T08:19:48.360Z,6.08
2023-02-19T08:22:16.288Z,6.09
2023-02-19T08:24:42.989Z,6.19
2023-02-19T08:27:09.669Z,6.18
2023-02-19T08:29:36.447Z,6.10
2023-02-19T08:34:38.360Z,6.07
2023-02-19T08:37:04.869Z,5.97
2023-02-19T08:39:32.468Z,5.97
2023-02-19T08:41:58.885Z,6.01
2023-02-19T08:44:25.562Z,6.22
2023-02-19T08:46:52.005Z,6.14
2023-02-19T08:49:20.654Z,6.09
2023-02-19T08:51:47.090Z,6.12
2023-02-19T08:54:14.905Z,5.94
2023-02-19T08:56:41.383Z,6.03
2023-02-19T08:59:07.772Z,6.03
2023-02-19T09:01:34.540Z,5.96
2023-02-19T09:04:01.120Z,6.09
2023-02-19T09:06:27.773Z,6.16
2023-02-19T09:08:54.396Z,5.97
2023-02-19T09:11:20.895Z,6.33
2023-02-19T09:16:51.368Z,6.36
2023-02-19T09:21:53.458Z,6.61
2023-02-19T09:24:20.743Z,6.65
2023-02-19T09:26:54.894Z,6.67
2023-02-19T09:29:26.272Z,6.73
2023-02-19T09:32:00.092Z,6.79
2023-02-19T09:34:28.027Z,6.77
2023-02-19T09:36:55.076Z,6.78
2023-02-19T09:39:21.536Z,6.77
2023-02-19T09:41:51.779Z,6.94
2023-02-19T09:44:33.484Z,7.11
2023-02-19T09:47:01.747Z,7.15
2023-02-19T09:49:33.593Z,7.32
2023-02-19T09:52:03.136Z,7.20
2023-02-19T10:02:39.270Z,7.03
2023-02-19T10:05:14.369Z,7.10
2023-02-19T10:07:47.233Z,7.15
2023-02-19T10:12:52.631Z,7.15
2023-02-19T10:15:46.778Z,7.29
2023-02-19T10:18:17.034Z,7.36
2023-02-19T10:20:43.797Z,7.53
2023-02-19T10:23:19.138Z,7.87
2023-02-19T10:25:54.170Z,8.31
2023-02-19T10:28:25.756Z,8.89
2023-02-19T10:30:58.922Z,9.17
2023-02-19T10:33:30.024Z,9.08
2023-02-19T10:35:58.201Z,8.61
2023-02-19T10:38:29.424Z,8.16
2023-02-19T10:41:04.153Z,8.46
2023-02-19T10:43:37.016Z,8.66
2023-02-19T10:46:07.755Z,8.72
2023-02-19T10:48:42.332Z,9.05
2023-02-19T10:51:13.032Z,9.16
2023-02-19T10:54:19.017Z,9.25
2023-02-19T10:56:46.225Z,9.54
2023-02-19T10:59:18.942Z,9.62
2023-02-19T11:01:55.231Z,9.40
2023-02-19T11:04:21.783Z,9.19
2023-02-19T11:06:48.371Z,9.27
2023-02-19T11:09:38.037Z,9.17
2023-02-19T11:12:05.852Z,9.63
2023-02-19T11:14:34.464Z,9.69
2023-02-19T11:17:05.587Z,9.80
2023-02-19T11:19:39.285Z,9.99
2023-02-19T11:22:40.075Z,9.69
2023-02-19T11:28:07.073Z,10.10
2023-02-19T11:30:45.119Z,9.53
2023-02-19T11:33:19.510Z,9.81
2023-02-19T11:35:48.103Z,9.77
2023-02-19T11:38:21.957Z,9.18
2023-02-19T11:48:55.756Z,9.58
2023-02-19T11:51:37.070Z,9.42
2023-02-19T11:54:35.884Z,9.46
2023-02-19T11:57:28.445Z,9.44
2023-02-19T12:00:15.836Z,9.46
2023-02-19T12:02:49.388Z,9.59
2023-02-19T12:05:31.968Z,9.83
2023-02-19T12:08:19.910Z,10.12
2023-02-19T12:11:14.499Z,10.00
2023-02-19T12:13:59.818Z,9.97
2023-02-19T12:16:42.014Z,9.89
2023-02-19T12:19:15.116Z,9.92
2023-02-19T12:27:13.264Z,10.45
2023-02-19T12:29:52.559Z,10.42
2023-02-19T12:33:23.895Z,11.43
2023-02-19T12:36:42.224Z,11.24
2023-02-19T12:39:37.376Z,11.94
2023-02-19T12:42:09.953Z,12.24
2023-02-19T12:44:42.438Z,12.08
2023-02-19T12:47:16.862Z,11.98
2023-02-19T12:50:02.339Z,12.09
2023-02-19T12:52:36.715Z,12.47
2023-02-19T12:55:26.290Z,12.81
2023-02-19T12:57:54.814Z,12.83
2023-02-19T13:00:43.907Z,12.64
2023-02-19T13:03:22.574Z,11.77
2023-02-19T13:06:10.071Z,11.27
2023-02-19T13:08:39.576Z,11.38
2023-02-19T13:11:32.245Z,10.92
2023-02-19T13:14:06.089Z,10.92
2023-02-19T13:16:37.383Z,10.84
2023-02-19T13:19:05.203Z,10.83
2023-02-19T13:22:55.232Z,10.30
2023-02-19T13:25:22.597Z,10.53
2023-02-19T13:27:55.785Z,10.55
2023-02-19T13:30:28.922Z,10.41
2023-02-19T13:33:26.836Z,10.27
2023-02-19T13:36:15.948Z,10.12
2023-02-19T13:38:47.091Z,9.99
2023-02-19T13:41:39.276Z,9.49
2023-02-19T13:44:19.095Z,9.51
2023-02-19T13:46:59.516Z,9.00
2023-02-19T13:49:26.031Z,9.34
2023-02-19T13:51:56.581Z,9.38
2023-02-19T13:54:35.926Z,9.25
2023-02-19T13:57:24.245Z,9.11
2023-02-19T13:59:51.822Z,9.04
2023-02-19T14:02:21.441Z,9.07
2023-02-19T14:04:55.607Z,9.10
2023-02-19T14:07:35.203Z,9.13
2023-02-19T14:10:03.115Z,8.94
2023-02-19T14:12:35.160Z,9.00
2023-02-19T14:15:39.357Z,9.08
2023-02-19T14:18:43.184Z,9.07
2023-02-19T14:21:23.290Z,8.99
2023-02-19T14:23:56.068Z,9.00
2023-02-19T14:26:24.185Z,8.75
2023-02-19T14:28:52.874Z,8.95
2023-02-19T14:32:22.873Z,8.78
2023-02-19T14:35:22.810Z,8.22
2023-02-19T14:37:52.100Z,8.70
2023-02-19T14:40:23.430Z,8.78
2023-02-19T14:42:53.261Z,8.79
2023-02-19T14:45:21.155Z,9.07
2023-02-19T14:47:49.041Z,9.30
2023-02-19T14:50:26.963Z,9.62
2023-02-19T14:52:58.415Z,9.74
2023-02-19T14:55:37.864Z,9.65
2023-02-19T14:58:16.570Z,9.75
2023-02-19T15:00:43.386Z,9.89
2023-02-19T15:03:33.006Z,10.06
2023-02-19T15:07:19.989Z,9.77
2023-02-19T15:09:21.910Z,9.52
2023-02-19T15:11:51.650Z,9.58
2023-02-19T15:14:23.731Z,9.89
2023-02-19T15:16:58.177Z,9.79
2023-02-19T15:19:24.796Z,9.61
2023-02-19T15:21:51.832Z,9.30
2023-02-19T15:24:19.327Z,9.25
2023-02-19T15:26:51.900Z,9.10
2023-02-19T15:29:21.260Z,8.91
2023-02-19T15:31:53.127Z,8.82
2023-02-19T15:34:30.735Z,8.96
2023-02-19T15:37:01.010Z,8.91
2023-02-19T15:39:35.852Z,8.73
2023-02-19T15:42:06.188Z,8.57
2023-02-19T15:44:56.921Z,8.47
2023-02-19T15:47:36.902Z,8.29
2023-02-19T15:50:31.708Z,8.37
2023-02-19T15:53:14.636Z,8.24
2023-02-19T15:55:47.315Z,8.16
2023-02-19T15:58:29.819Z,8.13
2023-02-19T16:01:00.961Z,8.18
2023-02-19T16:03:28.766Z,8.17
2023-02-19T16:05:59.525Z,8.03
2023-02-19T16:08:36.918Z,8.08
2023-02-19T16:11:27.498Z,8.07
2023-02-19T16:14:16.486Z,8.01
2023-02-19T16:16:44.856Z,7.95
2023-02-19T16:19:11.695Z,7.76
2023-02-19T16:21:53.111Z,7.57
2023-02-19T16:24:35.882Z,7.84
2023-02-19T16:27:10.366Z,7.36
2023-02-19T16:29:37.382Z,7.48
2023-02-19T16:32:09.692Z,7.44
2023-02-19T16:34:54.930Z,7.17
2023-02-19T16:37:34.506Z,7.62
2023-02-19T16:40:07.253Z,7.58
2023-02-19T16:42:55.209Z,7.42
2023-02-19T16:45:27.441Z,7.48
2023-02-19T16:47:54.061Z,7.44
2023-02-19T16:50:26.749Z,6.93
2023-02-19T16:52:58.651Z,7.24
2023-02-19T16:55:37.825Z,7.04
2023-02-19T16:58:04.408Z,7.09
2023-02-19T17:00:32.028Z,7.12
2023-02-19T17:03:08.943Z,7.10
2023-02-19T17:05:37.014Z,7.01
2023-02-19T17:08:23.646Z,7.13
2023-02-19T17:10:54.091Z,6.99
2023-02-19T17:13:24.931Z,7.20
2023-02-19T17:15:56.727Z,7.24
2023-02-19T17:18:25.662Z,7.19
2023-02-19T17:21:16.253Z,7.21
2023-02-19T17:23:44.998Z,7.17
2023-02-19T17:26:17.041Z,7.18
2023-02-19T17:28:43.596Z,7.19
2023-02-19T17:31:11.427Z,7.25
2023-02-19T17:33:38.861Z,7.13
2023-02-19T17:36:06.030Z,7.11
2023-02-19T17:38:32.775Z,7.08
2023-02-19T17:41:42.577Z,6.74
2023-02-19T17:44:11.961Z,6.57
2023-02-19T17:46:38.571Z,7.09
2023-02-19T17:49:05.232Z,7.00
2023-02-19T17:51:31.729Z,7.03
2023-02-19T17:53:58.180Z,6.96
2023-02-19T17:56:26.603Z,7.05
2023-02-19T17:58:54.140Z,6.97
2023-02-19T18:01:21.473Z,6.99
2023-02-19T18:03:47.976Z,6.99
2023-02-19T18:06:14.703Z,7.03
2023-02-19T18:08:50.441Z,6.85
2023-02-19T18:11:17.518Z,6.91
2023-02-19T18:13:44.026Z,6.78
2023-02-19T18:16:16.665Z,6.84
2023-02-19T18:18:44.731Z,6.79
2023-02-19T18:21:18.490Z,6.58
2023-02-19T18:23:46.683Z,6.48
2023-02-19T18:26:21.821Z,6.78
2023-02-19T18:28:51.369Z,6.21
2023-02-19T18:31:18.005Z,6.33
2023-02-19T18:33:44.656Z,6.67
2023-02-19T18:36:12.473Z,6.77
2023-02-19T18:38:39.347Z,6.62
2023-02-19T18:41:06.398Z,6.39
2023-02-19T18:43:41.177Z,6.27
2023-02-19T18:46:09.354Z,6.66
2023-02-19T18:48:36.190Z,6.52
2023-02-19T18:51:02.697Z,6.65
2023-02-19T18:53:31.271Z,6.48
2023-02-19T18:58:45.700Z,6.64
2023-02-19T19:01:13.926Z,6.62
2023-02-19T19:03:40.765Z,6.58
2023-02-19T19:06:14.740Z,6.59
2023-02-19T19:08:43.485Z,6.23
2023-02-19T19:14:04.566Z,6.36
2023-02-19T19:16:31.235Z,6.25
2023-02-19T19:18:59.642Z,6.61
2023-02-19T19:21:26.169Z,6.59
2023-02-19T19:23:53.158Z,6.62
2023-02-19T19:26:19.766Z,6.53
2023-02-19T19:28:46.566Z,6.59
2023-02-19T19:31:15.851Z,6.53
2023-02-19T19:33:43.476Z,6.56
2023-02-19T19:36:11.540Z,6.47
2023-02-19T19:38:38.167Z,6.45
2023-02-19T19:41:05.426Z,6.57
2023-02-19T19:43:33.344Z,6.51
2023-02-19T19:46:00.273Z,6.60
2023-02-19T19:48:27.642Z,6.48
2023-02-19T19:50:56.740Z,6.41
2023-02-19T19:53:23.997Z,6.44
2023-02-19T19:55:50.498Z,6.55
2023-02-19T19:58:20.900Z,6.46
2023-02-19T20:01:36.023Z,6.58
2023-02-19T20:04:11.556Z,6.10
2023-02-19T20:06:44.377Z,6.14
2023-02-19T20:09:11.293Z,6.26
2023-02-19T20:11:53.318Z,5.90
2023-02-19T20:14:22.178Z,6.02
2023-02-19T20:16:50.533Z,6.52
2023-02-19T20:19:18.502Z,6.47
2023-02-19T20:21:50.529Z,6.42
2023-02-19T20:24:19.657Z,6.49
2023-02-19T20:26:46.433Z,6.50
2023-02-19T20:29:12.887Z,6.48
2023-02-19T20:31:39.823Z,6.37
2023-02-19T20:34:06.277Z,6.43
2023-02-19T20:36:32.857Z,6.40
2023-02-19T20:38:59.270Z,6.39
2023-02-19T20:41:25.753Z,6.23
2023-02-19T20:43:59.699Z,6.21
2023-02-19T20:46:26.174Z,6.20
2023-02-19T20:48:52.702Z,6.07
2023-02-19T20:51:19.124Z,6.09
2023-02-19T20:53:45.560Z,6.10
2023-02-19T20:56:12.689Z,5.99
2023-02-19T20:58:42.123Z,6.16
2023-02-19T21:01:09.249Z,6.20
2023-02-19T21:03:35.689Z,6.08
2023-02-19T21:06:02.197Z,6.13
2023-02-19T21:08:28.618Z,6.21
2023-02-19T21:10:56.254Z,6.24
2023-02-19T21:13:23.145Z,6.13
2023-02-19T21:15:49.606Z,6.27
2023-02-19T21:18:17.371Z,6.23
2023-02-19T21:20:43.743Z,6.22
2023-02-19T21:23:10.185Z,6.20
2023-02-19T21:25:37.850Z,6.17
2023-02-19T21:28:05.279Z,6.19
2023-02-19T21:30:31.704Z,6.09
2023-02-19T21:32:58.150Z,6.21
2023-02-19T21:35:24.597Z,6.18
2023-02-19T21:37:50.994Z,6.21
2023-02-19T21:40:17.531Z,6.16
2023-02-19T21:42:44.613Z,6.09
2023-02-19T21:45:11.197Z,6.13
2023-02-19T21:47:37.621Z,6.08
2023-02-19T21:50:04.553Z,6.03
2023-02-19T21:52:31.123Z,5.97
2023-02-19T21:54:58.071Z,6.02
2023-02-19T21:57:24.504Z,5.88
2023-02-19T21:59:50.900Z,5.94
2023-02-19T22:02:20.199Z,5.92
2023-02-19T22:04:46.898Z,5.97
2023-02-19T22:07:13.398Z,5.87
2023-02-19T22:09:39.895Z,5.85
2023-02-19T22:12:06.470Z,5.79
2023-02-19T22:14:32.890Z,5.81
2023-02-19T22:16:59.293Z,5.87
2023-02-19T22:19:25.692Z,5.84
2023-02-19T22:21:52.095Z,5.79
2023-02-19T22:24:21.753Z,5.84
2023-02-19T22:26:50.603Z,5.81
2023-02-19T22:29:17.536Z,5.82
2023-02-19T22:31:44.175Z,5.78
2023-02-19T22:34:10.810Z,5.77
2023-02-19T22:36:37.357Z,5.74
2023-02-19T22:39:06.042Z,5.68
2023-02-19T22:41:32.538Z,5.66
2023-02-19T22:44:00.148Z,5.71
2023-02-19T22:46:30.336Z,5.70
2023-02-19T22:48:57.702Z,5.77
2023-02-19T22:51:24.947Z,5.72
2023-02-19T22:53:54.325Z,5.70
2023-02-19T22:56:27.925Z,5.71
2023-02-19T22:58:56.295Z,5.64
2023-02-19T23:01:23.928Z,5.70
2023-02-19T23:03:52.865Z,5.68
2023-02-19T23:06:25.698Z,5.68
2023-02-19T23:08:53.652Z,5.60
2023-02-19T23:11:23.562Z,5.55
2023-02-19T23:13:50.161Z,5.47
2023-02-19T23:16:16.772Z,5.37
2023-02-19T23:18:43.361Z,5.37
2023-02-19T23:21:09.898Z,5.33
2023-02-19T23:23:36.280Z,5.25
2023-02-19T23:26:04.160Z,5.19
2023-02-19T23:28:30.648Z,5.16
2023-02-19T23:30:57.186Z,5.19
2023-02-19T23:33:23.883Z,5.17
2023-02-19T23:35:50.288Z,5.06
2023-02-19T23:38:16.867Z,5.01
2023-02-19T23:40:43.344Z,5.07
2023-02-19T23:43:09.755Z,5.10
2023-02-19T23:45:36.148Z,5.04
2023-02-19T23:48:02.904Z,5.10
2023-02-19T23:50:29.332Z,4.95
2023-02-19T23:52:59.327Z,5.08
2023-02-19T23:55:26.743Z,4.97
2023-02-19T23:57:53.574Z,5.00
